createdAt,value
2018-06-05T00:01:44.315Z,4.07
2018-06-05T00:04:13.627Z,3.93
2018-06-05T00:06:42.900Z,4.50
2018-06-05T00:09:12.312Z,4.37
2018-06-05T00:11:41.584Z,4.30
2018-06-05T00:14:10.828Z,4.57
2018-06-05T00:16:41.942Z,4.27
2018-06-05T00:19:11.170Z,4.37
2018-06-05T00:21:40.739Z,4.27
2018-06-05T00:24:09.997Z,4.00
2018-06-05T00:26:39.804Z,4.70
2018-06-05T00:29:31.135Z,4.03
2018-06-05T00:32:01.026Z,4.40
2018-06-05T00:34:30.542Z,4.70
2018-06-05T00:36:59.885Z,4.03
2018-06-05T00:39:29.169Z,4.20
2018-06-05T00:41:58.474Z,4.40
2018-06-05T00:44:27.772Z,3.83
2018-06-05T00:46:57.430Z,4.57
2018-06-05T00:49:26.978Z,4.33
2018-06-05T00:52:05.865Z,4.20
2018-06-05T00:54:35.411Z,4.57
2018-06-05T00:57:04.719Z,4.33
2018-06-05T00:59:56.684Z,4.40
2018-06-05T01:02:25.962Z,4.37
2018-06-05T01:04:55.202Z,4.00
2018-06-05T01:07:24.459Z,4.40
2018-06-05T01:09:53.710Z,4.03
2018-06-05T01:12:22.993Z,3.77
2018-06-05T01:14:52.509Z,4.30
2018-06-05T01:17:21.786Z,3.73
2018-06-05T01:22:27.294Z,4.33
2018-06-05T01:24:56.550Z,4.90
2018-06-05T01:27:26.221Z,4.23
2018-06-05T01:29:55.808Z,4.20
2018-06-05T01:32:25.482Z,3.90
2018-06-05T01:34:54.721Z,4.87
2018-06-05T01:37:24.346Z,4.30
2018-06-05T01:39:55.318Z,4.33
2018-06-05T01:42:24.589Z,4.40
2018-06-05T01:44:54.694Z,4.33
2018-06-05T01:47:24.440Z,4.63
2018-06-05T01:49:54.086Z,4.23
2018-06-05T01:52:24.354Z,4.97
2018-06-05T01:54:54.515Z,4.37
2018-06-05T01:57:24.670Z,4.70
2018-06-05T01:59:54.270Z,4.77
2018-06-05T02:02:23.902Z,4.43
2018-06-05T02:04:53.203Z,4.73
2018-06-05T02:07:22.493Z,4.70
2018-06-05T02:09:55.150Z,4.60
2018-06-05T02:12:24.462Z,4.97
2018-06-05T02:14:53.745Z,4.63
2018-06-05T02:17:24.462Z,4.60
2018-06-05T02:19:53.991Z,4.60
2018-06-05T02:22:23.600Z,4.50
2018-06-05T02:24:53.236Z,4.27
2018-06-05T02:27:22.914Z,4.30
2018-06-05T02:30:02.175Z,5.00
2018-06-05T02:32:32.494Z,4.20
2018-06-05T02:35:02.450Z,5.13
2018-06-05T02:37:32.678Z,4.80
2018-06-05T02:40:02.182Z,4.83
2018-06-05T02:42:31.421Z,4.93
2018-06-05T02:45:00.737Z,4.70
2018-06-05T02:47:30.439Z,5.07
2018-06-05T03:32:11.375Z,4.67
2018-06-05T03:34:40.643Z,4.67
2018-06-05T03:37:09.887Z,5.10
2018-06-05T03:39:39.121Z,4.77
2018-06-05T03:42:08.891Z,4.40
2018-06-05T03:44:38.159Z,4.83
2018-06-05T03:47:07.425Z,4.97
2018-06-05T03:49:42.915Z,4.97
2018-06-05T03:52:12.777Z,5.00
2018-06-05T03:54:42.090Z,4.73
2018-06-05T03:57:11.756Z,4.83
2018-06-05T03:59:42.295Z,5.23
2018-06-05T04:02:14.982Z,4.50
2018-06-05T04:04:45.637Z,4.87
2018-06-05T04:07:14.898Z,5.03
2018-06-05T04:09:44.865Z,5.10
2018-06-05T04:12:25.041Z,4.90
2018-06-05T04:14:54.327Z,5.27
2018-06-05T04:17:23.551Z,4.80
2018-06-05T04:19:52.858Z,4.77
2018-06-05T04:22:23.215Z,4.90
2018-06-05T04:24:52.478Z,4.47
2018-06-05T04:27:21.719Z,4.90
2018-06-05T04:29:50.995Z,5.10
2018-06-05T04:32:20.258Z,4.93
2018-06-05T04:34:49.541Z,4.67
2018-06-05T04:37:18.816Z,5.17
2018-06-05T04:39:48.372Z,5.00
2018-06-05T16:57:27.535Z,25.50
2018-06-05T17:03:21.806Z,23.43
2018-06-05T17:12:29.546Z,21.47
2018-06-05T17:18:15.198Z,18.40
2018-06-05T17:27:05.442Z,16.73
2018-06-05T17:29:35.104Z,14.97
2018-06-05T17:32:04.502Z,15.40
2018-06-05T17:34:34.795Z,16.30
2018-06-05T17:37:08.490Z,14.57
2018-06-05T17:39:39.736Z,14.47
2018-06-05T17:42:13.093Z,12.07
2018-06-05T17:44:46.388Z,13.27
2018-06-05T17:47:16.751Z,12.43
2018-06-05T17:49:47.401Z,13.10
2018-06-05T17:52:17.720Z,11.53
2018-06-05T17:54:48.412Z,11.87
2018-06-05T17:57:18.618Z,11.60
2018-06-05T17:59:48.555Z,11.30
2018-06-05T18:02:19.264Z,11.00
2018-06-05T18:04:49.300Z,10.90
2018-06-05T18:07:21.383Z,10.27
2018-06-05T18:09:51.217Z,10.50
2018-06-05T18:12:21.799Z,10.53
2018-06-05T18:14:55.046Z,10.33
2018-06-05T18:17:27.340Z,9.03
2018-06-05T18:19:56.672Z,9.60
2018-06-05T18:22:26.719Z,9.53
2018-06-05T18:25:01.251Z,9.10
2018-06-05T18:27:32.800Z,9.30
2018-06-05T18:30:04.815Z,8.20
2018-06-05T18:32:36.904Z,8.93
2018-06-05T18:35:09.234Z,7.83
2018-06-05T18:37:39.244Z,8.30
2018-06-05T18:40:09.940Z,8.20
2018-06-05T18:42:47.866Z,9.07
2018-06-05T18:45:17.365Z,8.77
2018-06-05T18:47:52.905Z,7.83
2018-06-05T18:50:22.511Z,7.13
2018-06-05T18:52:57.956Z,7.50
2018-06-05T18:55:27.864Z,7.47
2018-06-05T18:58:00.651Z,7.70
2018-06-05T19:00:31.255Z,7.07
2018-06-05T19:03:05.629Z,7.03
2018-06-05T19:05:35.992Z,7.00
2018-06-05T19:08:10.574Z,7.33
2018-06-05T19:13:37.874Z,7.00
2018-06-05T19:16:08.335Z,8.43
2018-06-05T19:18:51.338Z,8.00
2018-06-05T19:21:27.792Z,7.43
2018-06-05T19:24:38.829Z,7.33
2018-06-05T19:27:09.554Z,6.23
2018-06-05T19:29:49.845Z,6.57
2018-06-05T19:32:33.067Z,6.97
2018-06-05T19:35:06.082Z,6.87
2018-06-05T19:37:37.939Z,6.93
2018-06-05T19:40:15.618Z,6.37
2018-06-05T19:42:46.487Z,7.07
2018-06-05T19:45:17.864Z,6.03
2018-06-05T19:47:48.542Z,6.60
2018-06-05T19:50:35.855Z,6.57
2018-06-05T19:53:13.817Z,6.73
2018-06-05T19:55:51.495Z,6.70
2018-06-05T19:58:34.894Z,6.90
2018-06-05T20:01:19.225Z,6.93
2018-06-05T20:07:19.982Z,6.93
2018-06-05T20:12:52.524Z,6.43
2018-06-05T20:15:26.704Z,6.03
2018-06-05T20:17:57.190Z,6.13
2018-06-05T20:20:27.742Z,6.40
2018-06-05T20:23:09.449Z,6.50
2018-06-05T20:32:10.802Z,6.40
2018-06-05T22:30:18.933Z,6.23
2018-06-05T22:32:49.682Z,5.73
2018-06-05T22:35:20.332Z,6.17
2018-06-05T22:41:06.942Z,5.50
